Etusivu
METAR-TAF:

METAR-TAF

Lentoasemat :

Arlington Municipal Airport

Arlington, Washington, Yhdysvallat

Leveyspiiri: 48-10N, Pituuspiiri: 122-10W, korkeus merenpinnasta: 42 m

Tämänhetkinen sää

Tämä raportti tehtiin 17 minuuttia sitten, kello 16.56 UTC
Tuuli 4 kn lännestä
Lämpötila 13°C
Kosteus 82%
Ilmanpaine 1007 hPa
Näkyvyys: 16.1 km
Pilvistä 9500 ft:n korkeudessa

METAR: KAWO 191656Z AUTO 27004KT 10SM OVC095 13/10 A2975 RMK AO2 SLP076 T01330100 $

Aika: 10:13 (17:13 UTC)


TAF: puuttuu

Säähavainnot ja -ennusteet yli 4000 lentoasemalta (METAR- ja TAF-raportit).

Käytössä olevat sääasemat on merkitty karttaan keltaisilla ja punaisilla pisteillä.

Aseta hiiri pisteen päälle nähdäksesi sääaseman nimen.

Klikkaa sitten nähdäksesi säähavainnot ja -ennusteet.

Kartan vaihtaminen: klikkaa mustalla rastilla varustettuja vihreitä pisteitä, niin voit zoomata sisään; viivalla varustettua vihreää pistettä, niin voit zoomata ulos tai vihreitä nuolia, niin pääset viereisille kartoille.


METAR-TAF: